Terminal Aerodrome Forecast
Issued by NWS North Platte, NE

Current Version | Previous Version | Text Only | Print | Product List | Glossary On
Versions: 1 2 3 4 5 6 7 8 9 10 11 12 13 14 15 16 17 18 19 20 21 22 23 24 25 26
329
FTUS43 KLBF 251728
TAFLBF
TAF
KLBF 251728Z 2518/2618 26008KT P6SM FEW150
     FM261300 29006KT P6SM FEW250=

USA.gov is the U.S. government's official web portal to all federal, state and local government web resources and services.